createdAt,value
2019-05-12T00:01:02.685Z,9.70
2019-05-12T00:03:31.605Z,9.70
2019-05-12T00:06:00.763Z,9.70
2019-05-12T00:08:29.811Z,9.70
2019-05-12T00:10:58.980Z,9.70
2019-05-12T00:13:28.104Z,9.60
2019-05-12T00:15:58.357Z,9.60
2019-05-12T00:18:28.447Z,9.60
2019-05-12T00:20:58.020Z,9.60
2019-05-12T00:23:28.692Z,9.60
2019-05-12T00:25:58.816Z,9.70
2019-05-12T00:28:28.407Z,9.60
2019-05-12T00:30:58.138Z,9.60
2019-05-12T00:33:28.207Z,9.60
2019-05-12T00:35:58.747Z,9.60
2019-05-12T00:38:28.033Z,9.50
2019-05-12T00:40:58.321Z,9.50
2019-05-12T00:43:28.231Z,9.50
2019-05-12T00:45:58.686Z,9.40
2019-05-12T00:48:28.390Z,9.40
2019-05-12T00:50:58.501Z,9.40
2019-05-12T00:53:39.326Z,9.30
2019-05-12T00:55:58.186Z,9.30
2019-05-12T00:58:27.838Z,9.30
2019-05-12T01:00:59.620Z,9.20
2019-05-12T01:03:28.043Z,9.20
2019-05-12T01:05:57.763Z,9.20
2019-05-12T01:08:28.091Z,9.20
2019-05-12T01:11:02.884Z,9.20
2019-05-12T01:13:34.941Z,9.20
2019-05-12T01:16:08.122Z,9.10
2019-05-12T01:18:38.530Z,9.10
2019-05-12T01:21:07.903Z,9.00
2019-05-12T01:23:52.864Z,9.00
2019-05-12T01:26:09.297Z,9.00
2019-05-12T01:28:38.342Z,8.90
2019-05-12T01:31:12.048Z,8.90
2019-05-12T01:33:40.991Z,8.90
2019-05-12T01:36:10.019Z,8.90
2019-05-12T01:38:40.221Z,8.90
2019-05-12T01:41:09.268Z,9.00
2019-05-12T01:43:38.346Z,9.00
2019-05-12T01:46:08.065Z,8.90
2019-05-12T01:48:37.816Z,8.90
2019-05-12T01:51:08.399Z,8.90
2019-05-12T01:53:37.946Z,8.90
2019-05-12T01:56:07.841Z,8.90
2019-05-12T01:58:38.219Z,9.00
2019-05-12T02:01:08.165Z,9.00
2019-05-12T02:03:37.777Z,9.00
2019-05-12T02:06:08.404Z,9.10
2019-05-12T02:09:02.610Z,9.10
2019-05-12T02:11:34.364Z,9.10
2019-05-12T02:14:05.084Z,9.10
2019-05-12T02:16:34.929Z,9.20
2019-05-12T02:19:03.857Z,9.20
2019-05-12T02:21:32.762Z,9.20
2019-05-12T02:24:01.708Z,9.20
2019-05-12T02:26:30.601Z,9.30
2019-05-12T02:28:59.539Z,9.30
2019-05-12T02:31:29.567Z,9.40
2019-05-12T02:33:58.790Z,9.50
2019-05-12T02:36:27.601Z,9.50
2019-05-12T02:38:56.813Z,9.50
2019-05-12T02:41:26.994Z,9.50
2019-05-12T02:43:55.911Z,9.40
2019-05-12T02:46:25.788Z,9.40
2019-05-12T02:48:54.998Z,9.50
2019-05-12T02:51:24.802Z,9.40
2019-05-12T02:53:55.399Z,9.50
2019-05-12T02:56:25.957Z,9.50
2019-05-12T02:58:55.913Z,9.40
2019-05-12T03:01:28.532Z,9.30
2019-05-12T03:04:00.087Z,9.30
2019-05-12T03:06:31.365Z,9.30
2019-05-12T03:09:04.840Z,9.30
2019-05-12T03:11:35.807Z,9.20
2019-05-12T03:14:05.043Z,9.20
2019-05-12T03:16:34.926Z,9.20
2019-05-12T03:19:05.394Z,9.20
2019-05-12T03:21:35.387Z,9.10
2019-05-12T03:24:06.478Z,9.10
2019-05-12T03:26:35.728Z,9.10
2019-05-12T03:29:06.316Z,9.10
2019-05-12T03:31:39.613Z,9.10
2019-05-12T03:34:09.125Z,9.10
2019-05-12T03:36:42.082Z,9.00
2019-05-12T03:39:08.696Z,9.00
2019-05-12T03:41:38.352Z,8.90
2019-05-12T03:44:07.539Z,8.90
2019-05-12T03:46:36.525Z,8.90
2019-05-12T03:49:05.886Z,9.00
2019-05-12T03:51:35.422Z,9.00
2019-05-12T03:54:05.397Z,9.00
2019-05-12T03:56:35.105Z,9.00
2019-05-12T03:59:05.350Z,9.00
2019-05-12T04:01:36.546Z,9.00
2019-05-12T04:04:06.616Z,9.00
2019-05-12T04:06:35.638Z,9.00
2019-05-12T04:09:07.773Z,9.00
2019-05-12T04:11:37.087Z,9.00
2019-05-12T04:14:06.284Z,9.00
2019-05-12T04:16:36.277Z,9.00
2019-05-12T04:19:05.955Z,9.00
2019-05-12T04:21:35.605Z,9.00
2019-05-12T04:24:05.971Z,9.00
2019-05-12T04:26:36.316Z,9.00
2019-05-12T04:29:05.969Z,9.00
2019-05-12T04:31:36.122Z,9.00
2019-05-12T04:34:05.630Z,9.00
2019-05-12T04:36:35.710Z,9.00
2019-05-12T04:39:06.904Z,9.00
2019-05-12T04:41:36.067Z,9.00
2019-05-12T04:44:05.957Z,9.00
2019-05-12T04:46:35.618Z,9.00
2019-05-12T04:49:05.476Z,9.00
2019-05-12T04:51:35.313Z,9.00
2019-05-12T04:54:05.775Z,9.00
2019-05-12T04:56:36.084Z,9.00
2019-05-12T04:59:06.108Z,9.00
2019-05-12T05:01:35.339Z,9.00
2019-05-12T05:04:05.782Z,9.00
2019-05-12T05:06:35.170Z,8.90
2019-05-12T05:09:06.613Z,9.00
2019-05-12T05:11:35.488Z,9.00
2019-05-12T05:14:04.554Z,9.10
2019-05-12T05:16:34.574Z,9.10
2019-05-12T05:19:03.858Z,9.10
2019-05-12T05:21:34.524Z,9.20
2019-05-12T05:24:03.937Z,9.30
2019-05-12T05:26:36.661Z,9.40
2019-05-12T05:29:04.435Z,9.50
2019-05-12T05:31:34.003Z,9.50
2019-05-12T05:34:04.762Z,9.60
2019-05-12T05:36:34.558Z,9.70
2019-05-12T05:39:06.149Z,9.80
2019-05-12T05:41:35.121Z,9.80
2019-05-12T05:44:04.143Z,9.90
2019-05-12T05:46:33.635Z,10.00
2019-05-12T05:49:04.204Z,10.10
2019-05-12T05:51:33.643Z,10.40
2019-05-12T05:54:03.977Z,10.40
2019-05-12T05:56:41.806Z,10.50
2019-05-12T05:59:04.635Z,10.50
2019-05-12T06:01:34.803Z,10.50
2019-05-12T06:04:08.331Z,10.60
2019-05-12T06:06:34.745Z,10.60
2019-05-12T06:09:06.377Z,10.50
2019-05-12T06:11:35.323Z,10.50
2019-05-12T06:14:11.315Z,10.50
2019-05-12T06:16:35.057Z,10.60
2019-05-12T06:19:04.056Z,10.60
2019-05-12T06:21:36.842Z,10.80
2019-05-12T06:24:03.700Z,10.90
2019-05-12T06:26:35.702Z,11.00
2019-05-12T06:29:04.469Z,11.10
2019-05-12T06:31:33.895Z,11.20
2019-05-12T06:34:07.903Z,11.20
2019-05-12T06:36:34.150Z,11.20
2019-05-12T06:39:10.437Z,11.20
2019-05-12T06:41:36.942Z,11.20
2019-05-12T06:44:12.152Z,11.20
2019-05-12T06:46:36.628Z,11.30
2019-05-12T06:49:12.676Z,11.30
2019-05-12T06:51:36.128Z,11.40
2019-05-12T06:54:07.417Z,11.50
2019-05-12T06:56:35.694Z,11.60
2019-05-12T06:59:09.741Z,11.60
2019-05-12T07:01:36.773Z,11.60
2019-05-12T07:04:09.917Z,11.70
2019-05-12T07:06:36.864Z,11.80
2019-05-12T07:09:16.355Z,11.80
2019-05-12T07:11:52.930Z,12.00
2019-05-12T07:14:22.553Z,12.10
2019-05-12T07:16:55.312Z,12.30
2019-05-12T07:19:22.847Z,12.10
2019-05-12T07:21:50.803Z,12.00
2019-05-12T07:24:20.047Z,11.90
2019-05-12T07:26:54.792Z,11.80
2019-05-12T07:29:20.874Z,11.70
2019-05-12T07:31:50.299Z,11.60
2019-05-12T07:34:19.394Z,11.50
2019-05-12T07:36:48.938Z,11.40
2019-05-12T07:39:19.205Z,11.40
2019-05-12T07:41:52.241Z,11.40
2019-05-12T07:44:25.218Z,11.50
2019-05-12T07:46:54.483Z,11.60
2019-05-12T07:49:34.205Z,11.70
2019-05-12T07:51:56.596Z,11.80
2019-05-12T07:54:29.358Z,11.90
2019-05-12T07:56:56.308Z,11.90
2019-05-12T07:59:34.430Z,11.80
2019-05-12T08:01:57.565Z,11.70
2019-05-12T08:04:31.681Z,11.70
2019-05-12T08:06:57.351Z,11.60
2019-05-12T08:09:32.464Z,11.60
2019-05-12T08:11:57.388Z,11.60
2019-05-12T08:14:29.398Z,11.60
2019-05-12T08:17:01.994Z,11.60
2019-05-12T08:19:28.610Z,11.70
2019-05-12T08:21:57.995Z,11.70
2019-05-12T08:24:27.107Z,11.80
2019-05-12T08:26:59.590Z,11.90
2019-05-12T08:29:26.909Z,12.00
2019-05-12T08:31:57.630Z,12.20
2019-05-12T08:34:26.636Z,12.40
2019-05-12T08:36:58.212Z,12.50
2019-05-12T08:39:27.172Z,12.70
2019-05-12T08:41:56.092Z,12.90
2019-05-12T08:44:33.685Z,12.90
2019-05-12T08:46:56.621Z,12.90
2019-05-12T08:49:25.725Z,13.00
2019-05-12T08:51:58.738Z,13.00
2019-05-12T08:54:25.406Z,13.00
2019-05-12T08:56:59.377Z,12.90
2019-05-12T08:59:27.419Z,12.70
2019-05-12T09:02:00.598Z,12.30
2019-05-12T09:04:26.548Z,11.80
2019-05-12T09:06:59.725Z,11.40
2019-05-12T09:09:26.550Z,11.30
2019-05-12T09:11:55.637Z,11.20
2019-05-12T09:14:24.644Z,11.20
2019-05-12T09:17:02.057Z,11.20
2019-05-12T09:19:27.109Z,11.40
2019-05-12T09:21:54.950Z,11.50
2019-05-12T09:24:27.197Z,11.60
2019-05-12T09:26:58.971Z,11.70
2019-05-12T09:29:25.787Z,11.90
2019-05-12T09:31:59.141Z,11.90
2019-05-12T09:34:25.462Z,11.90
2019-05-12T09:36:59.681Z,11.90
2019-05-12T09:39:25.255Z,11.90
2019-05-12T09:41:55.343Z,12.10
2019-05-12T09:44:30.470Z,12.30
2019-05-12T09:46:58.312Z,12.60
2019-05-12T09:49:31.371Z,12.90
2019-05-12T09:51:58.145Z,13.20
2019-05-12T09:54:35.382Z,13.30
2019-05-12T09:57:01.368Z,13.20
2019-05-12T09:59:30.511Z,13.20
2019-05-12T10:01:59.656Z,13.30
2019-05-12T10:04:28.535Z,13.30
2019-05-12T10:06:57.860Z,13.10
2019-05-12T10:09:26.749Z,13.00
2019-05-12T10:12:00.750Z,12.90
2019-05-12T10:14:26.360Z,13.10
2019-05-12T10:16:55.621Z,13.40
2019-05-12T10:19:24.788Z,13.60
2019-05-12T10:21:55.225Z,13.90
2019-05-12T10:24:24.624Z,14.10
2019-05-12T10:26:55.801Z,14.20
2019-05-12T10:29:30.735Z,13.90
2019-05-12T10:31:55.525Z,13.90
2019-05-12T10:34:29.208Z,13.90
2019-05-12T10:36:55.473Z,14.00
2019-05-12T10:39:24.776Z,14.10
2019-05-12T10:41:54.820Z,14.40
2019-05-12T10:44:24.302Z,14.80
2019-05-12T10:46:56.405Z,14.70
2019-05-12T10:49:25.296Z,14.30
2019-05-12T10:51:54.172Z,13.90
2019-05-12T10:54:24.177Z,13.80
2019-05-12T10:56:54.605Z,14.10
2019-05-12T10:59:32.193Z,14.40
2019-05-12T11:01:54.976Z,14.60
2019-05-12T11:04:35.720Z,14.50
2019-05-12T11:06:54.578Z,14.50
2019-05-12T11:09:29.395Z,14.40
2019-05-12T11:11:54.635Z,14.30
2019-05-12T11:14:26.445Z,14.40
2019-05-12T11:17:02.104Z,14.40
2019-05-12T11:19:29.893Z,14.40
2019-05-12T11:21:59.074Z,14.20
2019-05-12T11:24:28.344Z,14.00
2019-05-12T11:26:58.165Z,14.00
2019-05-12T11:29:27.435Z,14.20
2019-05-12T11:31:56.914Z,14.40
2019-05-12T11:34:26.126Z,14.60
2019-05-12T11:36:55.248Z,14.50
2019-05-12T11:39:24.303Z,14.20
2019-05-12T11:41:55.314Z,14.20
2019-05-12T11:44:24.420Z,14.30
2019-05-12T11:46:54.721Z,14.50
2019-05-12T11:49:26.437Z,14.60
2019-05-12T11:51:54.722Z,14.70
2019-05-12T11:54:24.369Z,14.80
2019-05-12T11:56:54.895Z,14.90
2019-05-12T11:59:24.147Z,15.00
2019-05-12T12:01:55.952Z,15.10
2019-05-12T12:04:45.291Z,14.90
2019-05-12T12:07:15.478Z,14.90
2019-05-12T12:09:49.629Z,15.00
2019-05-12T12:12:15.699Z,15.00
2019-05-12T12:14:50.365Z,14.90
2019-05-12T12:17:25.461Z,14.80
2019-05-12T12:19:54.528Z,14.70
2019-05-12T12:22:34.150Z,14.80
2019-05-12T12:25:10.822Z,15.00
2019-05-12T12:27:35.695Z,15.10
2019-05-12T12:30:18.598Z,15.00
2019-05-12T12:32:44.323Z,14.90
2019-05-12T12:35:15.156Z,15.00
2019-05-12T12:37:49.334Z,15.20
2019-05-12T12:40:24.584Z,15.20
2019-05-12T12:42:55.550Z,15.20
2019-05-12T12:45:49.600Z,15.40
2019-05-12T12:48:29.559Z,15.30
2019-05-12T12:50:58.339Z,15.20
2019-05-12T12:53:30.282Z,15.20
2019-05-12T12:55:59.421Z,15.20
2019-05-12T12:58:34.602Z,15.20
2019-05-12T13:01:06.824Z,15.00
2019-05-12T13:03:45.673Z,15.00
2019-05-12T13:06:17.401Z,15.20
2019-05-12T13:08:49.641Z,15.10
2019-05-12T13:11:32.859Z,15.10
2019-05-12T13:13:57.417Z,14.90
2019-05-12T13:16:26.445Z,14.90
2019-05-12T13:18:56.578Z,14.60
2019-05-12T13:21:25.709Z,14.70
2019-05-12T13:23:54.867Z,14.80
2019-05-12T13:26:24.039Z,14.90
2019-05-12T13:28:54.980Z,15.00
2019-05-12T13:31:24.411Z,14.80
2019-05-12T13:33:55.085Z,14.70
2019-05-12T13:36:29.442Z,14.80
2019-05-12T13:38:55.983Z,14.70
2019-05-12T13:41:25.016Z,14.70
2019-05-12T13:43:56.179Z,14.70
2019-05-12T13:46:24.520Z,14.80
2019-05-12T13:48:56.115Z,14.90
2019-05-12T13:51:24.277Z,15.10
2019-05-12T13:53:53.466Z,15.10
2019-05-12T13:56:25.763Z,15.10
2019-05-12T13:58:54.076Z,15.10
2019-05-12T14:01:24.907Z,15.10
2019-05-12T14:03:54.033Z,15.00
2019-05-12T14:06:32.053Z,14.90
2019-05-12T14:08:54.016Z,14.80
2019-05-12T14:11:23.886Z,14.70
2019-05-12T14:13:53.133Z,14.70
2019-05-12T14:16:23.920Z,14.70
2019-05-12T14:18:57.105Z,14.80
2019-05-12T14:21:24.440Z,14.80
2019-05-12T14:23:53.909Z,14.90
2019-05-12T14:26:24.230Z,14.80
2019-05-12T14:28:53.629Z,14.60
2019-05-12T14:31:29.225Z,14.70
2019-05-12T14:33:53.951Z,14.90
2019-05-12T14:36:26.546Z,14.80
2019-05-12T14:38:53.711Z,14.80
2019-05-12T14:41:26.505Z,14.60
2019-05-12T14:44:01.435Z,14.60
2019-05-12T14:46:24.302Z,14.60
2019-05-12T14:48:54.268Z,14.70
2019-05-12T14:51:24.558Z,14.70
2019-05-12T14:53:53.963Z,14.80
2019-05-12T14:56:23.335Z,14.90
2019-05-12T14:58:56.580Z,14.80
2019-05-12T15:01:38.253Z,14.70
2019-05-12T15:03:55.075Z,14.70
2019-05-12T15:06:27.170Z,14.70
2019-05-12T15:08:54.599Z,14.70
2019-05-12T15:11:26.631Z,14.60
2019-05-12T15:13:55.476Z,14.80
2019-05-12T15:16:26.039Z,14.80
2019-05-12T15:18:55.216Z,14.80
2019-05-12T15:21:37.106Z,14.80
2019-05-12T15:24:09.267Z,14.80
2019-05-12T15:26:38.756Z,14.80
2019-05-12T15:29:13.367Z,14.80
2019-05-12T15:31:52.471Z,14.70
2019-05-12T15:34:09.263Z,14.80
2019-05-12T15:36:43.621Z,14.80
2019-05-12T15:39:09.447Z,14.70
2019-05-12T15:41:38.496Z,14.80
2019-05-12T15:44:07.578Z,14.70
2019-05-12T15:46:41.172Z,14.70
2019-05-12T15:49:08.921Z,14.70
2019-05-12T15:51:39.256Z,14.80
2019-05-12T15:54:11.657Z,14.70
2019-05-12T15:56:39.641Z,14.80
2019-05-12T15:59:08.830Z,14.90
2019-05-12T16:01:37.860Z,14.80
2019-05-12T16:04:07.595Z,14.70
2019-05-12T16:06:36.937Z,14.70
2019-05-12T16:09:07.272Z,14.80
2019-05-12T16:11:36.254Z,15.00
2019-05-12T16:14:05.508Z,14.90
2019-05-12T16:16:42.346Z,14.90
2019-05-12T16:19:05.471Z,14.90
2019-05-12T16:21:34.626Z,15.00
2019-05-12T16:24:10.891Z,15.10
2019-05-12T16:26:34.377Z,15.20
2019-05-12T16:29:06.952Z,15.10
2019-05-12T16:31:34.253Z,15.00
2019-05-12T16:34:05.949Z,15.00
2019-05-12T16:36:34.015Z,15.10
2019-05-12T16:39:07.555Z,15.00
2019-05-12T16:41:35.410Z,14.80
2019-05-12T16:44:07.833Z,14.70
2019-05-12T16:46:35.077Z,14.60
2019-05-12T16:49:05.057Z,14.80
2019-05-12T16:51:33.934Z,14.70
2019-05-12T16:54:03.647Z,14.70
2019-05-12T16:56:33.944Z,14.60
2019-05-12T16:59:07.195Z,14.60
2019-05-12T17:01:33.707Z,14.50
2019-05-12T17:04:04.357Z,14.50
2019-05-12T17:06:34.904Z,14.60
2019-05-12T17:09:06.828Z,14.60
2019-05-12T17:11:37.323Z,14.40
2019-05-12T17:14:06.816Z,14.50
2019-05-12T17:16:41.734Z,14.70
2019-05-12T17:19:10.492Z,14.70
2019-05-12T17:21:37.248Z,14.60
2019-05-12T17:24:06.380Z,14.50
2019-05-12T17:26:35.275Z,14.40
2019-05-12T17:29:04.313Z,14.40
2019-05-12T17:31:33.989Z,14.40
2019-05-12T17:34:06.369Z,14.50
2019-05-12T17:36:34.274Z,14.40
2019-05-12T17:39:06.280Z,14.30
2019-05-12T17:41:40.574Z,14.30
2019-05-12T17:44:06.471Z,14.40
2019-05-12T17:46:38.125Z,14.30
2019-05-12T17:49:07.095Z,14.20
2019-05-12T17:51:36.394Z,14.10
2019-05-12T17:54:07.145Z,14.10
2019-05-12T17:56:38.640Z,14.10
2019-05-12T17:59:07.539Z,14.00
2019-05-12T18:01:36.559Z,14.00
2019-05-12T18:04:05.636Z,13.80
2019-05-12T18:06:34.616Z,13.70
2019-05-12T18:09:09.289Z,13.60
2019-05-12T18:11:39.684Z,13.60
2019-05-12T18:14:08.791Z,13.60
2019-05-12T18:16:37.732Z,13.60
2019-05-12T18:19:09.134Z,13.50
2019-05-12T18:21:37.483Z,13.40
2019-05-12T18:24:11.088Z,13.20
2019-05-12T18:26:36.958Z,13.10
2019-05-12T18:29:05.949Z,12.90
2019-05-12T18:31:35.760Z,12.90
2019-05-12T18:34:05.070Z,12.90
2019-05-12T18:36:34.382Z,12.90
2019-05-12T18:39:09.360Z,12.80
2019-05-12T18:41:33.995Z,12.70
2019-05-12T18:44:04.492Z,12.70
2019-05-12T18:46:36.197Z,12.60
2019-05-12T18:49:12.050Z,12.50
2019-05-12T18:51:35.081Z,12.40
2019-05-12T18:54:10.038Z,12.30
2019-05-12T18:56:34.533Z,12.30
2019-05-12T18:59:11.628Z,12.10
2019-05-12T19:01:35.625Z,12.00
2019-05-12T19:04:14.324Z,12.00
2019-05-12T19:06:44.003Z,12.00
2019-05-12T19:09:14.172Z,11.90
2019-05-12T19:11:46.515Z,11.80
2019-05-12T19:14:13.731Z,11.70
2019-05-12T19:16:43.694Z,11.70
2019-05-12T19:19:18.414Z,11.70
2019-05-12T19:21:46.554Z,11.60
2019-05-12T19:24:19.564Z,11.60
2019-05-12T19:26:46.610Z,11.50
2019-05-12T19:29:16.272Z,11.30
2019-05-12T19:31:52.570Z,11.30
2019-05-12T19:34:22.567Z,11.20
2019-05-12T19:36:49.375Z,11.10
2019-05-12T19:39:17.537Z,11.10
2019-05-12T19:41:46.394Z,11.00
2019-05-12T19:44:20.016Z,11.00
2019-05-12T19:46:49.432Z,10.90
2019-05-12T19:49:20.201Z,10.90
2019-05-12T19:51:47.451Z,10.80
2019-05-12T19:54:19.436Z,10.80
2019-05-12T19:56:46.977Z,10.70
2019-05-12T19:59:15.816Z,10.70
2019-05-12T20:01:44.765Z,10.60
2019-05-12T20:04:14.131Z,10.60
2019-05-12T20:06:44.680Z,10.60
2019-05-12T20:09:14.631Z,10.60
2019-05-12T20:11:43.618Z,10.50
2019-05-12T20:14:19.024Z,10.50
2019-05-12T20:16:43.969Z,10.50
2019-05-12T20:19:13.655Z,10.50
2019-05-12T20:21:43.779Z,10.50
2019-05-12T20:24:14.305Z,10.50
2019-05-12T20:26:44.033Z,10.50
2019-05-12T20:29:13.903Z,10.40
2019-05-12T20:31:47.094Z,10.40
2019-05-12T20:34:13.940Z,10.30
2019-05-12T20:36:44.427Z,10.30
2019-05-12T20:39:16.967Z,10.30
2019-05-12T20:41:44.384Z,10.30
2019-05-12T20:44:17.303Z,10.30
2019-05-12T20:46:43.794Z,10.20
2019-05-12T20:49:14.871Z,10.20
2019-05-12T20:51:44.374Z,10.20
2019-05-12T20:54:17.919Z,10.10
2019-05-12T20:56:44.636Z,10.10
2019-05-12T20:59:21.695Z,10.10
2019-05-12T21:01:44.367Z,10.00
2019-05-12T21:04:14.257Z,10.00
2019-05-12T21:06:43.350Z,10.00
2019-05-12T21:09:14.440Z,10.00
2019-05-12T21:11:44.211Z,9.90
2019-05-12T21:14:14.765Z,9.90
2019-05-12T21:16:44.870Z,9.80
2019-05-12T21:19:14.354Z,9.80
2019-05-12T21:21:44.414Z,9.70
2019-05-12T21:24:14.090Z,9.70
2019-05-12T21:26:44.080Z,9.70
2019-05-12T21:29:13.762Z,9.70
2019-05-12T21:31:44.544Z,9.70
2019-05-12T21:34:21.156Z,9.70
2019-05-12T21:36:44.422Z,9.70
2019-05-12T21:39:14.100Z,9.70
2019-05-12T21:41:50.444Z,9.80
2019-05-12T21:44:14.137Z,9.80
2019-05-12T21:46:47.441Z,9.80
2019-05-12T21:49:15.563Z,9.70
2019-05-12T21:51:44.690Z,9.70
2019-05-12T21:54:13.908Z,9.70
2019-05-12T21:56:48.112Z,9.70
2019-05-12T21:59:15.508Z,9.60
2019-05-12T22:01:45.989Z,9.60
2019-05-12T22:04:15.055Z,9.60
2019-05-12T22:06:43.967Z,9.60
2019-05-12T22:09:14.744Z,9.60
2019-05-12T22:11:50.638Z,9.60
2019-05-12T22:14:14.299Z,9.50
2019-05-12T22:16:46.854Z,9.50
2019-05-12T22:19:15.992Z,9.50
2019-05-12T22:21:49.454Z,9.50
2019-05-12T22:24:15.371Z,9.50
2019-05-12T22:26:46.560Z,9.50
2019-05-12T22:29:14.775Z,9.50
2019-05-12T22:31:47.995Z,9.50
2019-05-12T22:34:14.187Z,9.50
2019-05-12T22:36:45.523Z,9.40
2019-05-12T22:39:14.331Z,9.40
2019-05-12T22:41:43.496Z,9.40
2019-05-12T22:44:18.367Z,9.40
2019-05-12T22:46:43.611Z,9.40
2019-05-12T22:49:16.892Z,9.30
2019-05-12T22:51:43.535Z,9.30
2019-05-12T22:54:13.759Z,9.30
2019-05-12T22:56:44.173Z,9.30
2019-05-12T22:59:13.736Z,9.30
2019-05-12T23:01:46.309Z,9.30
2019-05-12T23:04:14.279Z,9.20
2019-05-12T23:06:46.467Z,9.20
2019-05-12T23:09:13.928Z,9.20
2019-05-12T23:11:42.767Z,9.20
2019-05-12T23:14:12.791Z,9.30
2019-05-12T23:16:44.269Z,9.30
2019-05-12T23:19:14.933Z,9.30
2019-05-12T23:21:43.926Z,9.30
2019-05-12T23:24:14.119Z,9.30
2019-05-12T23:26:47.807Z,9.20
2019-05-12T23:29:14.591Z,9.10
2019-05-12T23:31:43.489Z,9.10
2019-05-12T23:34:14.492Z,9.10
2019-05-12T23:36:44.034Z,9.00
2019-05-12T23:39:14.375Z,8.90
2019-05-12T23:41:43.802Z,9.00
2019-05-12T23:44:13.543Z,9.00
2019-05-12T23:46:43.796Z,9.00
2019-05-12T23:49:14.371Z,8.90
2019-05-12T23:51:43.904Z,8.90
2019-05-12T23:54:14.348Z,9.00
2019-05-12T23:56:44.428Z,9.00
2019-05-12T23:59:13.623Z,9.00
